Avilla, Missouri
Current Conditions -  °F | °C
As of 8:53 AM on Tuesday 21 Oct 2014 (Local Time) from KJLN Reporting Station
Moderate Fog Moderate Fog  
Wind Chill: 53°   Ceiling: 200
Heat Index: 53°   Visibility: 0.25mi
Dew Point: 53°   Wind: 0mph
Humidity: 100%   Direction: NA
Pressure: 30.14"   Gusts: NA
Location:  37.2°N, 94.13°W
Report Text: KJLN 211353Z 00000KT 1/4SM FG VV002 12/12 A3014 RMK AO2 SLP202 T01170117
Loading
Personal Weather Stations






























Interactive Weather Map
Tropical Storm Tracking
New forecast layout! Learn more

10-Day Weather Forecast

Advertisements
Track Severe Weather on mobile